CheckWX is a tool to help pilots better visualize weather data.  It is not intended as a substitute for an official pre-flight weather briefing.

20:10:24 UTC

KBAF TAF
Westfield-Barnes Regional Airport
Westfield/Springfield, Massachusetts, USA
KBAF 251743Z 2518/2618 00000KT P6SM VCSH OVC004 FM251900 16005KT P6SM VCSH SCT004 OVC015 FM252100 17004KT P6SM OVC030 FM260100 00000KT P6SM VCSH BKN035 FM260800 32003KT 6SM BR SCT050

Jun-25@
18:00 UTC

Jun-25 @ 18:00 UTC

Jun-25@
19:00 UTC

Jun-25 @ 19:00 UTC

KBAF 251743Z 2518/2618 00000KT P6SM VCSH OVC004

Expired

Cloud Levels
  • Overcast at 400' AGL

Jun-25@
19:00 UTC

Jun-25 @ 19:00 UTC

Jun-25@
21:00 UTC

Jun-25 @ 21:00 UTC

FM251900 16005KT P6SM VCSH SCT004 OVC015

From

From Standard forecast or significant change

Wind
  • 160° at 5 KTS
Cloud Levels
  • Scattered at 400' AGL
  • Overcast at 1,500' AGL

Jun-25@
21:00 UTC

Jun-25 @ 21:00 UTC

Jun-26@
01:00 UTC

Jun-26 @ 01:00 UTC

FM252100 17004KT P6SM OVC030

From

From Standard forecast or significant change

Wind
  • 170° at 4 KTS
Cloud Levels
  • Overcast at 3,000' AGL

Jun-26@
01:00 UTC

Jun-26 @ 01:00 UTC

Jun-26@
08:00 UTC

Jun-26 @ 08:00 UTC

FM260100 00000KT P6SM VCSH BKN035

From

From Standard forecast or significant change

Cloud Levels
  • Broken at 3,500' AGL

Jun-26@
08:00 UTC

Jun-26 @ 08:00 UTC

Jun-26@
18:00 UTC

Jun-26 @ 18:00 UTC

FM260800 32003KT 6SM BR SCT050

From

From Standard forecast or significant change

Wind
  • 320° at 3 KTS
Conditions
Mist
Cloud Levels
  • Scattered at 5,000' AGL